Heavener, OK (74937)

9:03 PM CDT en Septiembre 20, 2014 (GMT -0500)
LCEM -Howe Middle School | Change Station
CLOSE
Current Station
Estación meteorológica personal
Location: Howe, OK
Altura: 535 ft
Estaciones meteorológicas cercanas

Alt 535 ft 34.95 °N, 94.64 °W | Updated 1 second ago

Despejado
Despejado
75.0 ° F
Sensación térmica 75 ° F
N
0.0
Viento Variable Viento desde SO
Gusts 0.0 mph

Hoy
Alta -- | Baja -- ° F
--% Posibilidad de precipitaciones
Ayer
Alta -- | Baja -- ° F
Precip. -- pul
7:04 AM 7:18 PM
Creciente menguante, 9% visible
Presión 30.00 pul
Visibilidad 10.0 Millas
Nubes Despejado
Índice de calor 75 ° F
Punto de rocío 70 ° F
Humedad 86%
Precipitaciones 0.00 pul
Espesor de la nieve No disponible.
UV 0 de una escala de 12
Polen 10.10 de una escala de 12
Calidad del aire No disponible.
Flu Activity No disponible.
METAR KRKR 210155Z AUTO 00000KT 10SM CLR 23/22 A3000 RMK AO2 T02320216

More Conditions Fewer Conditions

Presión 30.00 pul
Visibilidad 10.0 Millas
Nubes Despejado
Índice de calor 75 ° F
Punto de rocío 70 ° F
Humedad 86%
Precipitaciones 0.00 pul
Espesor de la nieve No disponible.
UV 0 de una escala de 12
Polen 10.10 de una escala de 12
Calidad del aire No disponible.
Flu Activity No disponible.
METAR KRKR 210155Z AUTO 00000KT 10SM CLR 23/22 A3000 RMK AO2 T02320216

More Conditions Fewer Conditions

10-Day Weather Forecast

Almanac

Astronomía

Sep. 20, 2014 Salida Puesta
Hora real 7:04 AM CDT 7:18 PM CDT
Crepúsculo civil 6:39 AM CDT 7:43 PM CDT
Crepúsculo náutico 6:10 AM CDT 8:12 PM CDT
Crepúsculo astronómico 5:40 AM CDT 8:42 PM CDT
Luna 3:51 AM CDT (9/20) 5:16 PM CDT (9/20)
Horas de luz 13h 03m
Horas de luz
12h 13m
Tomorrow will be 2m 11s shorter.
Creciente menguante, 9% of the Moon is Illuminated
Hoy
Creciente menguante
Sep 24
Nueva
Oct 1
Cuarto creciente
Oct 8
Luna llena
Oct 15
Cuarto menguante

Extremos de hoy

Máximos del estado Bajos del estado

Community

WunderPhotos

Upload Photos

1,755,032 ¡fotos cargadas!

WunderBlogs® & News

Nearby

Grosos de nieve

Estación Profundido Altura
No tenemos constancia de nieve nueva.

Actividad de terremotos

Ciudad Distance Mag. Tiempo y dato
No hay informes recientes de la actividad sísmica.
Magnitud mínima muestra es 2,5.

Temperaturas de aguas costeras

Lugar Temperatura
Sin partes meteorológicos de las estaciones

Estaciones meteorológicas cercanas